createdAt,value
2022-08-08T00:01:17.887Z,17.90
2022-08-08T00:03:53.240Z,18.00
2022-08-08T00:06:37.598Z,18.10
2022-08-08T00:09:12.149Z,17.90
2022-08-08T00:12:07.778Z,18.00
2022-08-08T00:14:59.260Z,17.90
2022-08-08T00:18:02.320Z,17.80
2022-08-08T00:20:36.046Z,17.70
2022-08-08T00:23:09.036Z,17.60
2022-08-08T00:25:46.188Z,17.40
2022-08-08T00:28:35.401Z,17.20
2022-08-08T00:32:20.646Z,17.20
2022-08-08T00:34:38.863Z,16.90
2022-08-08T00:37:45.389Z,17.10
2022-08-08T00:41:09.293Z,17.10
2022-08-08T00:43:45.897Z,17.20
2022-08-08T00:46:57.471Z,17.30
2022-08-08T00:50:04.372Z,17.30
2022-08-08T00:52:48.863Z,17.10
2022-08-08T00:55:54.703Z,17.20
2022-08-08T00:58:55.568Z,17.10
2022-08-08T01:01:37.977Z,17.00
2022-08-08T01:04:56.923Z,17.00
2022-08-08T01:08:11.186Z,17.00
2022-08-08T01:11:02.125Z,17.00
2022-08-08T01:14:16.209Z,17.00
2022-08-08T01:17:14.933Z,16.90
2022-08-08T01:20:22.325Z,17.00
2022-08-08T01:24:03.206Z,16.60
2022-08-08T01:26:49.054Z,16.80
2022-08-08T01:29:59.924Z,16.80
2022-08-08T01:33:33.746Z,16.90
2022-08-08T01:36:48.697Z,16.70
2022-08-08T01:39:34.997Z,16.60
2022-08-08T01:42:21.451Z,16.60
2022-08-08T01:45:24.109Z,16.60
2022-08-08T01:48:27.574Z,16.70
2022-08-08T01:51:30.758Z,16.80
2022-08-08T01:55:15.423Z,16.80
2022-08-08T01:57:25.951Z,16.80
2022-08-08T02:00:20.047Z,16.90
2022-08-08T02:03:56.181Z,16.80
2022-08-08T02:06:32.445Z,16.80
2022-08-08T02:10:01.757Z,16.60
2022-08-08T02:12:19.468Z,16.70
2022-08-08T02:14:58.787Z,16.80
2022-08-08T02:17:43.405Z,16.80
2022-08-08T02:21:01.580Z,16.80
2022-08-08T02:23:31.658Z,16.70
2022-08-08T02:26:10.275Z,16.70
2022-08-08T02:28:51.855Z,16.40
2022-08-08T02:31:57.855Z,16.20
2022-08-08T02:35:06.446Z,16.20
2022-08-08T02:37:51.361Z,16.10
2022-08-08T02:40:39.061Z,16.10
2022-08-08T02:44:37.502Z,16.00
2022-08-08T02:46:41.605Z,15.90
2022-08-08T02:49:51.223Z,16.20
2022-08-08T02:52:50.856Z,16.20
2022-08-08T02:55:41.435Z,16.30
2022-08-08T02:58:48.273Z,16.30
2022-08-08T03:01:56.525Z,16.10
2022-08-08T03:05:12.322Z,16.20
2022-08-08T03:08:25.793Z,15.90
2022-08-08T03:11:47.833Z,15.90
2022-08-08T03:15:58.108Z,16.00
2022-08-08T03:17:40.921Z,15.80
2022-08-08T03:20:11.579Z,15.60
2022-08-08T03:22:56.092Z,15.40
2022-08-08T03:25:36.131Z,15.20
2022-08-08T03:28:10.791Z,15.00
2022-08-08T03:30:49.049Z,15.00
2022-08-08T03:33:55.678Z,15.10
2022-08-08T03:36:27.865Z,15.10
2022-08-08T03:39:15.002Z,15.20
2022-08-08T03:42:26.797Z,15.50
2022-08-08T03:44:39.668Z,15.70
2022-08-08T03:47:20.244Z,15.90
2022-08-08T03:50:00.973Z,16.00
2022-08-08T03:52:37.228Z,16.00
2022-08-08T03:55:55.318Z,16.00
2022-08-08T03:58:30.484Z,16.00
2022-08-08T04:01:23.206Z,16.10
2022-08-08T04:03:57.375Z,16.10
2022-08-08T04:06:34.105Z,16.00
2022-08-08T04:09:11.310Z,16.00
2022-08-08T04:11:58.886Z,16.10
2022-08-08T04:14:55.606Z,15.90
2022-08-08T04:17:58.346Z,15.90
2022-08-08T04:20:12.598Z,15.90
2022-08-08T04:22:41.399Z,15.90
2022-08-08T04:25:13.094Z,15.90
2022-08-08T04:28:02.217Z,15.70
2022-08-08T04:30:36.573Z,15.70
2022-08-08T04:33:15.801Z,15.90
2022-08-08T04:35:51.218Z,15.90
2022-08-08T04:38:22.531Z,16.00
2022-08-08T04:40:54.939Z,16.10
2022-08-08T04:43:31.672Z,16.30
2022-08-08T04:46:15.321Z,16.40
2022-08-08T04:48:44.360Z,16.70
2022-08-08T04:51:17.384Z,17.40
2022-08-08T04:54:36.131Z,18.30
2022-08-08T04:56:40.455Z,18.90
2022-08-08T04:59:13.001Z,19.60
2022-08-08T05:01:48.586Z,19.70
2022-08-08T05:04:19.632Z,19.60
2022-08-08T05:06:52.031Z,20.20
2022-08-08T05:09:21.438Z,21.00
2022-08-08T05:11:57.218Z,21.30
2022-08-08T05:14:29.177Z,22.00
2022-08-08T05:17:00.558Z,21.80
2022-08-08T05:20:10.604Z,22.00
2022-08-08T05:22:23.698Z,22.50
2022-08-08T05:24:52.976Z,22.30
2022-08-08T05:27:23.716Z,23.30
2022-08-08T05:29:56.552Z,23.70
2022-08-08T05:32:36.388Z,23.80
2022-08-08T05:35:13.486Z,24.30
2022-08-08T05:37:53.490Z,24.30
2022-08-08T05:40:35.316Z,24.20
2022-08-08T05:43:17.134Z,23.90
2022-08-08T05:46:08.650Z,23.50
2022-08-08T05:48:41.973Z,24.40
2022-08-08T05:51:15.664Z,23.80
2022-08-08T05:54:25.748Z,24.00
2022-08-08T05:56:47.734Z,24.30
2022-08-08T05:59:59.838Z,24.70
2022-08-08T06:02:38.631Z,25.10
2022-08-08T06:05:34.087Z,25.60
2022-08-08T06:08:02.454Z,25.60
2022-08-08T06:10:34.690Z,24.80
2022-08-08T06:13:04.753Z,24.80
2022-08-08T06:15:53.384Z,25.30
2022-08-08T06:18:42.900Z,26.20
2022-08-08T06:21:28.081Z,26.80
2022-08-08T06:24:02.608Z,26.80
2022-08-08T06:26:50.268Z,26.90
2022-08-08T06:30:00.407Z,26.90
2022-08-08T06:32:19.706Z,27.20
2022-08-08T06:35:12.051Z,26.90
2022-08-08T06:37:55.797Z,26.80
2022-08-08T06:40:32.190Z,26.60
2022-08-08T06:43:10.019Z,26.80
2022-08-08T06:45:48.505Z,27.00
2022-08-08T06:48:18.828Z,26.90
2022-08-08T06:50:57.731Z,26.40
2022-08-08T06:53:39.915Z,26.50
2022-08-08T06:56:11.591Z,27.00
2022-08-08T06:58:45.003Z,27.80
2022-08-08T07:02:17.065Z,27.50
2022-08-08T07:04:37.286Z,27.80
2022-08-08T07:07:09.633Z,27.70
2022-08-08T07:09:56.268Z,27.60
2022-08-08T07:12:39.283Z,27.40
2022-08-08T07:15:22.996Z,27.40
2022-08-08T07:18:35.807Z,26.80
2022-08-08T07:21:01.866Z,25.40
2022-08-08T07:24:00.882Z,25.40
2022-08-08T07:26:35.628Z,26.20
2022-08-08T07:29:08.197Z,26.50
2022-08-08T07:31:43.404Z,27.70
2022-08-08T07:34:26.994Z,28.00
2022-08-08T07:37:12.186Z,28.00
2022-08-08T07:39:57.680Z,28.20
2022-08-08T07:42:34.466Z,27.90
2022-08-08T07:45:07.537Z,28.20
2022-08-08T07:47:40.114Z,28.60
2022-08-08T07:50:24.009Z,28.20
2022-08-08T07:52:58.101Z,27.80
2022-08-08T07:55:30.817Z,27.20
2022-08-08T07:58:17.750Z,26.90
2022-08-08T08:00:51.980Z,26.70
2022-08-08T08:03:41.518Z,26.60
2022-08-08T08:06:16.363Z,26.00
2022-08-08T08:08:53.031Z,26.40
2022-08-08T08:11:33.654Z,26.10
2022-08-08T08:14:11.215Z,25.20
2022-08-08T08:16:48.507Z,24.50
2022-08-08T08:19:26.779Z,24.00
2022-08-08T08:22:02.354Z,23.70
2022-08-08T08:24:38.817Z,23.60
2022-08-08T08:27:12.795Z,23.40
2022-08-08T08:29:44.317Z,23.30
2022-08-08T08:32:32.105Z,23.30
2022-08-08T08:35:09.783Z,23.20
2022-08-08T08:38:05.500Z,23.30
2022-08-08T08:40:30.096Z,23.30
2022-08-08T08:43:02.800Z,23.30
2022-08-08T08:45:33.008Z,23.30
2022-08-08T08:48:05.288Z,23.40
2022-08-08T08:50:40.930Z,23.40
2022-08-08T08:53:54.576Z,23.40
2022-08-08T08:56:14.599Z,23.30
2022-08-08T08:58:50.236Z,23.50
2022-08-08T09:01:34.290Z,23.60
2022-08-08T09:04:10.183Z,23.70
2022-08-08T09:06:58.569Z,23.60
2022-08-08T09:09:40.145Z,23.50
2022-08-08T09:12:23.763Z,23.60
2022-08-08T09:14:57.244Z,23.70
2022-08-08T09:17:40.820Z,23.70
2022-08-08T09:21:57.183Z,23.80
2022-08-08T09:23:10.462Z,23.70
2022-08-08T09:25:55.018Z,23.80
2022-08-08T09:28:40.041Z,24.00
2022-08-08T09:31:42.818Z,24.20
2022-08-08T09:34:32.844Z,24.50
2022-08-08T09:37:57.833Z,24.70
2022-08-08T09:40:03.831Z,24.80
2022-08-08T09:42:44.494Z,24.60
2022-08-08T09:46:00.724Z,24.80
2022-08-08T09:48:17.739Z,25.10
2022-08-08T09:50:51.644Z,25.10
2022-08-08T09:53:54.761Z,24.90
2022-08-08T09:56:25.178Z,25.30
2022-08-08T09:58:58.403Z,25.40
2022-08-08T10:01:59.119Z,25.60
2022-08-08T10:04:22.691Z,25.60
2022-08-08T10:07:15.807Z,25.50
2022-08-08T10:09:58.755Z,25.40
2022-08-08T10:12:38.012Z,25.20
2022-08-08T10:15:17.884Z,25.20
2022-08-08T10:18:07.319Z,25.40
2022-08-08T10:20:50.965Z,25.30
2022-08-08T10:23:41.927Z,25.50
2022-08-08T10:26:26.007Z,25.70
2022-08-08T10:29:04.164Z,25.90
2022-08-08T10:31:51.670Z,26.00
2022-08-08T10:34:22.302Z,25.90
2022-08-08T10:36:53.292Z,26.10
2022-08-08T10:39:23.375Z,26.20
2022-08-08T10:42:15.377Z,26.00
2022-08-08T10:44:45.910Z,25.80
2022-08-08T10:47:21.169Z,25.80
2022-08-08T10:50:02.045Z,26.10
2022-08-08T10:52:33.914Z,25.70
2022-08-08T10:55:06.287Z,26.00
2022-08-08T10:57:50.355Z,25.60
2022-08-08T11:00:25.834Z,25.20
2022-08-08T11:02:54.631Z,24.90
2022-08-08T11:05:23.515Z,25.10
2022-08-08T11:08:31.885Z,25.00
2022-08-08T11:10:44.606Z,25.10
2022-08-08T11:13:28.517Z,25.10
2022-08-08T11:16:01.385Z,25.10
2022-08-08T11:18:37.487Z,25.10
2022-08-08T11:21:08.801Z,25.10
2022-08-08T11:23:42.832Z,24.90
2022-08-08T11:26:12.236Z,25.10
2022-08-08T11:28:50.187Z,25.20
2022-08-08T11:31:21.080Z,25.30
2022-08-08T11:34:01.638Z,25.40
2022-08-08T11:36:33.171Z,25.60
2022-08-08T11:39:11.048Z,25.80
2022-08-08T11:41:43.159Z,25.70
2022-08-08T11:44:13.405Z,26.00
2022-08-08T11:46:42.320Z,26.20
2022-08-08T11:49:14.219Z,26.30
2022-08-08T11:51:49.846Z,26.50
2022-08-08T11:54:33.484Z,26.80
2022-08-08T11:57:16.862Z,27.00
2022-08-08T12:00:00.677Z,27.50
2022-08-08T12:02:48.639Z,27.70
2022-08-08T12:05:22.910Z,27.50
2022-08-08T12:07:56.120Z,27.70
2022-08-08T12:10:27.374Z,27.80
2022-08-08T12:13:02.988Z,27.90
2022-08-08T12:15:41.718Z,27.90
2022-08-08T12:18:16.092Z,28.10
2022-08-08T12:20:49.197Z,27.90
2022-08-08T12:23:40.188Z,27.70
2022-08-08T12:26:28.459Z,28.00
2022-08-08T12:29:21.199Z,28.10
2022-08-08T12:32:02.747Z,28.00
2022-08-08T12:34:43.611Z,28.10
2022-08-08T12:37:20.983Z,27.70
2022-08-08T12:40:00.651Z,27.20
2022-08-08T12:42:33.594Z,26.90
2022-08-08T12:45:54.005Z,26.70
2022-08-08T12:48:10.489Z,25.90
2022-08-08T12:50:54.780Z,25.70
2022-08-08T12:53:30.288Z,25.80
2022-08-08T12:56:17.461Z,26.20
2022-08-08T12:58:50.974Z,26.10
2022-08-08T13:01:24.366Z,26.00
2022-08-08T13:04:19.175Z,25.70
2022-08-08T13:07:06.607Z,25.70
2022-08-08T13:10:00.944Z,26.10
2022-08-08T13:12:30.669Z,26.20
2022-08-08T13:15:03.638Z,25.90
2022-08-08T13:18:07.754Z,26.30
2022-08-08T13:20:27.332Z,26.70
2022-08-08T13:25:50.958Z,26.00
2022-08-08T13:28:32.170Z,26.50
2022-08-08T13:31:03.835Z,26.80
2022-08-08T13:33:42.828Z,27.00
2022-08-08T13:36:12.054Z,27.30
2022-08-08T13:38:44.430Z,27.40
2022-08-08T13:41:16.866Z,27.60
2022-08-08T13:43:47.378Z,27.50
2022-08-08T13:46:26.686Z,26.90
2022-08-08T13:49:11.754Z,27.00
2022-08-08T13:51:54.985Z,27.20
2022-08-08T13:54:31.326Z,27.50
2022-08-08T13:57:08.605Z,27.80
2022-08-08T13:59:44.306Z,27.80
2022-08-08T14:02:21.755Z,27.90
2022-08-08T14:04:54.520Z,27.70
2022-08-08T14:07:29.889Z,27.80
2022-08-08T14:10:04.904Z,27.90
2022-08-08T14:12:43.862Z,27.80
2022-08-08T14:15:31.659Z,28.10
2022-08-08T14:18:34.773Z,28.20
2022-08-08T14:21:03.587Z,27.60
2022-08-08T14:24:07.414Z,27.80
2022-08-08T14:26:31.845Z,27.90
2022-08-08T14:29:06.053Z,27.40
2022-08-08T14:32:10.066Z,27.80
2022-08-08T14:34:38.143Z,27.70
2022-08-08T14:37:08.184Z,27.50
2022-08-08T14:39:47.803Z,27.10
2022-08-08T14:42:17.864Z,26.80
2022-08-08T14:44:56.933Z,26.70
2022-08-08T14:47:26.716Z,26.70
2022-08-08T14:50:21.284Z,26.90
2022-08-08T14:52:57.403Z,27.00
2022-08-08T14:55:41.042Z,27.20
2022-08-08T14:58:16.213Z,27.60
2022-08-08T15:00:49.132Z,28.00
2022-08-08T15:03:18.479Z,27.90
2022-08-08T15:05:54.334Z,28.00
2022-08-08T15:08:33.558Z,27.90
2022-08-08T15:11:06.450Z,28.20
2022-08-08T15:13:41.028Z,27.80
2022-08-08T15:16:23.628Z,27.30
2022-08-08T15:18:52.316Z,27.40
2022-08-08T15:21:22.183Z,27.50
2022-08-08T15:23:52.045Z,27.20
2022-08-08T15:26:20.957Z,27.10
2022-08-08T15:28:54.378Z,27.40
2022-08-08T15:32:02.705Z,27.60
2022-08-08T15:34:18.565Z,27.70
2022-08-08T15:36:59.523Z,27.60
2022-08-08T15:39:38.420Z,27.70
2022-08-08T15:42:10.424Z,27.60
2022-08-08T15:44:42.561Z,27.60
2022-08-08T15:47:15.664Z,27.20
2022-08-08T15:49:48.316Z,26.90
2022-08-08T15:52:21.507Z,26.90
2022-08-08T15:54:51.729Z,26.70
2022-08-08T15:57:21.660Z,26.80
2022-08-08T16:00:05.536Z,27.10
2022-08-08T16:02:50.162Z,27.40
2022-08-08T16:05:19.640Z,27.70
2022-08-08T16:07:52.876Z,27.90
2022-08-08T16:13:09.457Z,27.80
2022-08-08T16:13:31.982Z,27.90
2022-08-08T16:16:13.294Z,27.40
2022-08-08T16:18:56.537Z,27.40
2022-08-08T16:21:29.058Z,27.50
2022-08-08T16:24:00.757Z,27.50
2022-08-08T16:26:33.882Z,27.30
2022-08-08T16:29:07.781Z,27.40
2022-08-08T16:31:40.126Z,27.20
2022-08-08T16:34:08.919Z,26.60
2022-08-08T16:36:40.620Z,26.50
2022-08-08T16:39:27.855Z,26.50
2022-08-08T16:42:01.435Z,26.50
2022-08-08T16:44:33.654Z,26.40
2022-08-08T16:47:17.672Z,26.40
2022-08-08T16:49:49.861Z,26.50
2022-08-08T16:55:01.402Z,26.60
2022-08-08T16:55:42.665Z,26.60
2022-08-08T16:58:15.786Z,26.50
2022-08-08T17:00:48.684Z,26.30
2022-08-08T17:03:25.029Z,26.10
2022-08-08T17:06:36.890Z,25.80
2022-08-08T17:08:57.650Z,25.80
2022-08-08T17:11:28.249Z,25.80
2022-08-08T17:14:17.982Z,25.80
2022-08-08T17:16:57.088Z,25.90
2022-08-08T17:19:27.400Z,25.90
2022-08-08T17:22:01.062Z,25.90
2022-08-08T17:24:30.850Z,25.70
2022-08-08T17:27:01.844Z,25.30
2022-08-08T17:29:34.009Z,25.40
2022-08-08T17:32:07.815Z,25.40
2022-08-08T17:35:52.157Z,25.30
2022-08-08T17:37:27.536Z,25.20
2022-08-08T17:40:06.065Z,25.00
2022-08-08T17:42:47.384Z,24.90
2022-08-08T17:45:23.195Z,24.90
2022-08-08T17:47:54.063Z,24.90
2022-08-08T17:50:23.775Z,24.90
2022-08-08T17:52:52.629Z,24.90
2022-08-08T17:56:07.097Z,24.90
2022-08-08T17:58:12.296Z,24.80
2022-08-08T18:00:41.264Z,24.80
2022-08-08T18:03:13.498Z,24.80
2022-08-08T18:05:49.898Z,24.80
2022-08-08T18:08:24.718Z,24.70
2022-08-08T18:11:07.909Z,24.70
2022-08-08T18:13:41.984Z,24.60
2022-08-08T18:16:11.339Z,24.50
2022-08-08T18:18:45.607Z,24.50
2022-08-08T18:21:25.123Z,24.40
2022-08-08T18:24:04.927Z,24.30
2022-08-08T18:26:34.037Z,24.30
2022-08-08T18:29:05.865Z,24.20
2022-08-08T18:31:34.098Z,24.10
2022-08-08T18:34:25.769Z,23.90
2022-08-08T18:36:56.270Z,23.80
2022-08-08T18:39:28.593Z,23.70
2022-08-08T18:42:03.008Z,23.60
2022-08-08T18:44:35.878Z,23.40
2022-08-08T18:47:04.887Z,23.30
2022-08-08T18:49:40.852Z,23.20
2022-08-08T18:52:23.429Z,23.20
2022-08-08T18:54:59.386Z,23.10
2022-08-08T18:57:41.658Z,23.00
2022-08-08T19:00:16.396Z,22.90
2022-08-08T19:02:56.603Z,22.90
2022-08-08T19:05:34.845Z,22.80
2022-08-08T19:08:25.062Z,22.80
2022-08-08T19:10:57.728Z,22.70
2022-08-08T19:13:52.949Z,22.70
2022-08-08T19:16:19.453Z,22.60
2022-08-08T19:19:02.109Z,22.60
2022-08-08T19:21:49.259Z,22.50
2022-08-08T19:24:48.956Z,22.40
2022-08-08T19:27:08.109Z,22.40
2022-08-08T19:29:40.933Z,22.40
2022-08-08T19:32:21.762Z,22.30
2022-08-08T19:34:52.778Z,22.30
2022-08-08T19:37:43.816Z,22.30
2022-08-08T19:40:16.188Z,22.30
2022-08-08T19:42:45.219Z,22.20
2022-08-08T19:45:14.336Z,22.20
2022-08-08T19:48:03.417Z,22.10
2022-08-08T19:50:33.089Z,22.10
2022-08-08T19:53:01.408Z,22.00
2022-08-08T19:55:34.084Z,22.00
2022-08-08T19:58:02.655Z,22.00
2022-08-08T20:00:34.363Z,21.90
2022-08-08T20:03:14.879Z,21.90
2022-08-08T20:06:14.442Z,21.90
2022-08-08T20:08:48.184Z,21.80
2022-08-08T20:11:18.604Z,21.80
2022-08-08T20:14:10.790Z,21.80
2022-08-08T20:16:40.742Z,21.70
2022-08-08T20:19:10.674Z,21.70
2022-08-08T20:21:39.463Z,21.60
2022-08-08T20:24:08.785Z,21.60
2022-08-08T20:26:41.782Z,21.60
2022-08-08T20:29:18.179Z,21.50
2022-08-08T20:31:47.289Z,21.40
2022-08-08T20:34:36.071Z,21.40
2022-08-08T20:37:07.213Z,21.40
2022-08-08T20:39:41.406Z,21.30
2022-08-08T20:42:20.446Z,21.30
2022-08-08T20:44:56.556Z,21.20
2022-08-08T20:47:25.958Z,21.10
2022-08-08T20:49:57.679Z,21.10
2022-08-08T20:52:28.453Z,21.00
2022-08-08T20:54:56.771Z,21.00
2022-08-08T20:57:27.156Z,21.00
2022-08-08T20:59:56.532Z,21.00
2022-08-08T21:02:25.683Z,20.90
2022-08-08T21:04:57.321Z,20.80
2022-08-08T21:07:31.163Z,20.80
2022-08-08T21:10:20.840Z,20.70
2022-08-08T21:12:52.854Z,20.60
2022-08-08T21:16:05.030Z,20.60
2022-08-08T21:18:12.216Z,20.60
2022-08-08T21:20:50.867Z,20.50
2022-08-08T21:23:19.156Z,20.50
2022-08-08T21:25:54.777Z,20.50
2022-08-08T21:28:35.519Z,20.50
2022-08-08T21:31:22.610Z,20.40
2022-08-08T21:33:51.830Z,20.40
2022-08-08T21:36:28.845Z,20.30
2022-08-08T21:38:57.614Z,20.20
2022-08-08T21:41:28.929Z,20.20
2022-08-08T21:44:13.107Z,20.10
2022-08-08T21:48:08.838Z,20.10
2022-08-08T21:49:30.626Z,20.00
2022-08-08T21:54:30.734Z,20.10
2022-08-08T21:54:54.159Z,20.10
2022-08-08T21:57:41.828Z,20.00
2022-08-08T22:00:12.286Z,20.00
2022-08-08T22:02:42.777Z,20.00
2022-08-08T22:05:14.607Z,19.90
2022-08-08T22:07:48.400Z,19.90
2022-08-08T22:10:32.062Z,19.90
2022-08-08T22:13:17.421Z,20.00
2022-08-08T22:15:58.669Z,20.00
2022-08-08T22:18:29.674Z,20.10
2022-08-08T22:20:59.555Z,20.10
2022-08-08T22:23:38.439Z,20.10
2022-08-08T22:26:26.863Z,20.10
2022-08-08T22:29:13.855Z,20.10
2022-08-08T22:32:01.512Z,20.10
2022-08-08T22:34:39.804Z,20.10
2022-08-08T22:37:27.592Z,20.10
2022-08-08T22:40:02.021Z,20.10
2022-08-08T22:42:31.921Z,20.10
2022-08-08T22:45:03.148Z,20.10
2022-08-08T22:47:37.976Z,20.10
2022-08-08T22:50:09.719Z,20.10
2022-08-08T22:53:22.526Z,20.10
2022-08-08T22:55:58.861Z,20.00
2022-08-08T22:58:33.159Z,20.10
2022-08-08T23:02:00.611Z,20.00
2022-08-08T23:03:54.683Z,20.00
2022-08-08T23:06:24.085Z,20.00
2022-08-08T23:08:55.395Z,19.90
2022-08-08T23:11:58.009Z,20.00
2022-08-08T23:14:18.257Z,19.90
2022-08-08T23:16:53.226Z,19.90
2022-08-08T23:19:26.312Z,20.00
2022-08-08T23:21:54.433Z,19.90
2022-08-08T23:24:23.627Z,19.90
2022-08-08T23:26:56.083Z,19.80
2022-08-08T23:29:25.375Z,19.80
2022-08-08T23:31:53.863Z,19.70
2022-08-08T23:34:22.349Z,19.70
2022-08-08T23:36:56.562Z,19.60
2022-08-08T23:39:32.421Z,19.70
2022-08-08T23:42:11.879Z,19.60
2022-08-08T23:44:39.943Z,19.60
2022-08-08T23:49:06.163Z,19.50
2022-08-08T23:50:03.134Z,19.50
2022-08-08T23:52:35.138Z,19.50
2022-08-08T23:55:13.941Z,19.50
2022-08-08T23:57:53.348Z,19.50
